sensor_id;sensor_type;location;lat;lon;timestamp;P1;durP1;ratioP1;P2;durP2;ratioP2
19191;SDS011;9728;48.194;16.346;2024-02-15T00:02:26;1.52;;;1.13;;
19191;SDS011;9728;48.194;16.346;2024-02-15T00:07:29;2.22;;;1.48;;
19191;SDS011;9728;48.194;16.346;2024-02-15T00:12:34;1.75;;;1.30;;
19191;SDS011;9728;48.194;16.346;2024-02-15T00:17:38;1.45;;;1.10;;
19191;SDS011;9728;48.194;16.346;2024-02-15T00:22:41;1.48;;;1.10;;
19191;SDS011;9728;48.194;16.346;2024-02-15T00:27:46;1.15;;;1.00;;
19191;SDS011;9728;48.194;16.346;2024-02-15T00:32:49;3.67;;;1.50;;
19191;SDS011;9728;48.194;16.346;2024-02-15T00:37:53;1.30;;;1.20;;
19191;SDS011;9728;48.194;16.346;2024-02-15T00:42:58;1.77;;;1.02;;
19191;SDS011;9728;48.194;16.346;2024-02-15T00:48:02;1.45;;;1.05;;
19191;SDS011;9728;48.194;16.346;2024-02-15T00:53:08;1.25;;;1.10;;
19191;SDS011;9728;48.194;16.346;2024-02-15T00:58:13;1.42;;;1.17;;
19191;SDS011;9728;48.194;16.346;2024-02-15T01:03:16;2.25;;;1.48;;
19191;SDS011;9728;48.194;16.346;2024-02-15T01:08:19;2.58;;;1.35;;
19191;SDS011;9728;48.194;16.346;2024-02-15T01:13:24;2.38;;;1.48;;
19191;SDS011;9728;48.194;16.346;2024-02-15T01:18:28;5.00;;;2.47;;
19191;SDS011;9728;48.194;16.346;2024-02-15T01:23:31;2.90;;;1.85;;
19191;SDS011;9728;48.194;16.346;2024-02-15T01:28:38;2.58;;;1.70;;
19191;SDS011;9728;48.194;16.346;2024-02-15T01:33:44;3.10;;;1.88;;
19191;SDS011;9728;48.194;16.346;2024-02-15T01:38:48;2.70;;;1.90;;
19191;SDS011;9728;48.194;16.346;2024-02-15T01:43:53;1.95;;;1.40;;
19191;SDS011;9728;48.194;16.346;2024-02-15T01:48:56;2.55;;;1.52;;
19191;SDS011;9728;48.194;16.346;2024-02-15T01:54:00;1.67;;;1.38;;
19191;SDS011;9728;48.194;16.346;2024-02-15T01:59:05;2.17;;;1.27;;
19191;SDS011;9728;48.194;16.346;2024-02-15T02:04:09;2.70;;;1.55;;
19191;SDS011;9728;48.194;16.346;2024-02-15T02:09:12;2.05;;;1.65;;
19191;SDS011;9728;48.194;16.346;2024-02-15T02:14:18;3.05;;;1.30;;
19191;SDS011;9728;48.194;16.346;2024-02-15T02:19:22;2.78;;;1.75;;
19191;SDS011;9728;48.194;16.346;2024-02-15T02:24:25;2.08;;;1.27;;
19191;SDS011;9728;48.194;16.346;2024-02-15T02:29:30;2.20;;;1.40;;
19191;SDS011;9728;48.194;16.346;2024-02-15T02:34:34;1.77;;;1.38;;
19191;SDS011;9728;48.194;16.346;2024-02-15T02:39:37;2.42;;;1.27;;
19191;SDS011;9728;48.194;16.346;2024-02-15T02:44:42;1.92;;;1.33;;
19191;SDS011;9728;48.194;16.346;2024-02-15T02:49:46;1.60;;;1.13;;
19191;SDS011;9728;48.194;16.346;2024-02-15T02:54:49;1.95;;;1.42;;
19191;SDS011;9728;48.194;16.346;2024-02-15T02:59:54;2.63;;;1.65;;
19191;SDS011;9728;48.194;16.346;2024-02-15T03:04:57;2.33;;;1.42;;
19191;SDS011;9728;48.194;16.346;2024-02-15T03:10:04;2.35;;;1.60;;
19191;SDS011;9728;48.194;16.346;2024-02-15T03:15:11;3.03;;;1.20;;
19191;SDS011;9728;48.194;16.346;2024-02-15T03:20:15;1.67;;;1.40;;
19191;SDS011;9728;48.194;16.346;2024-02-15T03:25:24;1.40;;;1.20;;
19191;SDS011;9728;48.194;16.346;2024-02-15T03:30:32;1.80;;;1.23;;
19191;SDS011;9728;48.194;16.346;2024-02-15T03:35:36;1.58;;;1.10;;
19191;SDS011;9728;48.194;16.346;2024-02-15T03:40:40;1.90;;;1.15;;
19191;SDS011;9728;48.194;16.346;2024-02-15T03:45:44;2.42;;;1.20;;
19191;SDS011;9728;48.194;16.346;2024-02-15T03:50:48;3.97;;;1.50;;
19191;SDS011;9728;48.194;16.346;2024-02-15T03:55:52;2.47;;;1.35;;
19191;SDS011;9728;48.194;16.346;2024-02-15T04:00:57;2.70;;;1.15;;
19191;SDS011;9728;48.194;16.346;2024-02-15T04:06:01;1.27;;;1.10;;
19191;SDS011;9728;48.194;16.346;2024-02-15T04:11:06;1.45;;;1.10;;
19191;SDS011;9728;48.194;16.346;2024-02-15T04:16:11;2.25;;;1.17;;
19191;SDS011;9728;48.194;16.346;2024-02-15T04:21:15;1.67;;;1.00;;
19191;SDS011;9728;48.194;16.346;2024-02-15T04:26:21;1.75;;;1.27;;
19191;SDS011;9728;48.194;16.346;2024-02-15T04:31:29;1.55;;;1.00;;
19191;SDS011;9728;48.194;16.346;2024-02-15T04:36:38;2.50;;;1.50;;
19191;SDS011;9728;48.194;16.346;2024-02-15T04:41:42;1.98;;;1.30;;
19191;SDS011;9728;48.194;16.346;2024-02-15T04:46:49;3.28;;;1.75;;
19191;SDS011;9728;48.194;16.346;2024-02-15T04:51:52;1.02;;;0.93;;
19191;SDS011;9728;48.194;16.346;2024-02-15T04:56:56;2.00;;;1.20;;
19191;SDS011;9728;48.194;16.346;2024-02-15T05:02:00;2.25;;;1.42;;
19191;SDS011;9728;48.194;16.346;2024-02-15T05:07:04;1.73;;;1.40;;
19191;SDS011;9728;48.194;16.346;2024-02-15T05:12:07;1.83;;;1.30;;
19191;SDS011;9728;48.194;16.346;2024-02-15T05:17:12;2.72;;;1.08;;
19191;SDS011;9728;48.194;16.346;2024-02-15T05:22:15;1.58;;;1.23;;
19191;SDS011;9728;48.194;16.346;2024-02-15T05:27:20;1.92;;;1.67;;
19191;SDS011;9728;48.194;16.346;2024-02-15T05:32:26;2.47;;;1.42;;
19191;SDS011;9728;48.194;16.346;2024-02-15T05:37:30;2.65;;;1.33;;
19191;SDS011;9728;48.194;16.346;2024-02-15T05:42:36;2.90;;;1.70;;
19191;SDS011;9728;48.194;16.346;2024-02-15T05:47:41;3.35;;;1.73;;
19191;SDS011;9728;48.194;16.346;2024-02-15T05:52:45;2.50;;;1.70;;
19191;SDS011;9728;48.194;16.346;2024-02-15T05:57:48;2.90;;;1.50;;
19191;SDS011;9728;48.194;16.346;2024-02-15T06:02:53;2.40;;;1.65;;
19191;SDS011;9728;48.194;16.346;2024-02-15T06:07:57;2.78;;;1.60;;
19191;SDS011;9728;48.194;16.346;2024-02-15T06:13:01;2.80;;;1.55;;
19191;SDS011;9728;48.194;16.346;2024-02-15T06:18:06;3.22;;;1.85;;
19191;SDS011;9728;48.194;16.346;2024-02-15T06:23:13;3.17;;;1.58;;
19191;SDS011;9728;48.194;16.346;2024-02-15T06:28:17;3.38;;;1.42;;
19191;SDS011;9728;48.194;16.346;2024-02-15T06:33:43;1.70;;;1.20;;
19191;SDS011;9728;48.194;16.346;2024-02-15T06:39:04;2.22;;;1.60;;
19191;SDS011;9728;48.194;16.346;2024-02-15T06:44:25;2.05;;;1.40;;
19191;SDS011;9728;48.194;16.346;2024-02-15T06:49:30;3.42;;;1.80;;
19191;SDS011;9728;48.194;16.346;2024-02-15T06:54:34;2.72;;;1.30;;
19191;SDS011;9728;48.194;16.346;2024-02-15T06:59:38;1.85;;;1.20;;
19191;SDS011;9728;48.194;16.346;2024-02-15T07:04:43;2.15;;;1.27;;
19191;SDS011;9728;48.194;16.346;2024-02-15T07:09:47;2.75;;;1.52;;
19191;SDS011;9728;48.194;16.346;2024-02-15T07:14:52;3.00;;;1.20;;
19191;SDS011;9728;48.194;16.346;2024-02-15T07:19:57;2.17;;;1.52;;
19191;SDS011;9728;48.194;16.346;2024-02-15T07:25:01;3.78;;;1.60;;
19191;SDS011;9728;48.194;16.346;2024-02-15T07:30:05;4.95;;;1.83;;
19191;SDS011;9728;48.194;16.346;2024-02-15T07:35:11;3.20;;;1.58;;
19191;SDS011;9728;48.194;16.346;2024-02-15T07:40:18;4.97;;;1.73;;
19191;SDS011;9728;48.194;16.346;2024-02-15T07:45:23;3.38;;;2.15;;
19191;SDS011;9728;48.194;16.346;2024-02-15T07:50:28;4.40;;;2.95;;
19191;SDS011;9728;48.194;16.346;2024-02-15T07:55:31;3.60;;;2.50;;
19191;SDS011;9728;48.194;16.346;2024-02-15T08:00:35;4.45;;;2.90;;
19191;SDS011;9728;48.194;16.346;2024-02-15T08:05:41;4.28;;;2.60;;
19191;SDS011;9728;48.194;16.346;2024-02-15T08:10:45;3.22;;;1.90;;
19191;SDS011;9728;48.194;16.346;2024-02-15T08:15:50;4.70;;;2.50;;
19191;SDS011;9728;48.194;16.346;2024-02-15T08:20:55;3.60;;;2.38;;
19191;SDS011;9728;48.194;16.346;2024-02-15T08:25:59;3.03;;;2.28;;
19191;SDS011;9728;48.194;16.346;2024-02-15T08:31:03;3.97;;;2.33;;
19191;SDS011;9728;48.194;16.346;2024-02-15T08:36:08;3.35;;;1.92;;
19191;SDS011;9728;48.194;16.346;2024-02-15T08:41:12;3.60;;;2.35;;
19191;SDS011;9728;48.194;16.346;2024-02-15T08:46:16;3.67;;;2.47;;
19191;SDS011;9728;48.194;16.346;2024-02-15T08:51:20;5.80;;;3.00;;
19191;SDS011;9728;48.194;16.346;2024-02-15T08:56:25;5.40;;;2.75;;
19191;SDS011;9728;48.194;16.346;2024-02-15T09:01:29;4.80;;;2.85;;
19191;SDS011;9728;48.194;16.346;2024-02-15T09:06:34;5.05;;;3.38;;
19191;SDS011;9728;48.194;16.346;2024-02-15T09:11:37;3.60;;;2.85;;
19191;SDS011;9728;48.194;16.346;2024-02-15T09:16:40;5.93;;;3.53;;
19191;SDS011;9728;48.194;16.346;2024-02-15T09:21:45;5.05;;;2.80;;
19191;SDS011;9728;48.194;16.346;2024-02-15T09:26:48;4.45;;;2.60;;
19191;SDS011;9728;48.194;16.346;2024-02-15T09:31:52;7.53;;;3.00;;
19191;SDS011;9728;48.194;16.346;2024-02-15T09:36:57;5.82;;;2.90;;
19191;SDS011;9728;48.194;16.346;2024-02-15T09:42:00;4.25;;;2.78;;
19191;SDS011;9728;48.194;16.346;2024-02-15T09:47:05;3.50;;;2.53;;
19191;SDS011;9728;48.194;16.346;2024-02-15T09:52:11;3.13;;;2.42;;
19191;SDS011;9728;48.194;16.346;2024-02-15T09:57:17;3.17;;;2.20;;
19191;SDS011;9728;48.194;16.346;2024-02-15T10:02:22;5.32;;;2.10;;
19191;SDS011;9728;48.194;16.346;2024-02-15T10:07:28;3.63;;;2.00;;
19191;SDS011;9728;48.194;16.346;2024-02-15T10:12:36;3.22;;;2.13;;
19191;SDS011;9728;48.194;16.346;2024-02-15T10:17:40;2.10;;;1.80;;
19191;SDS011;9728;48.194;16.346;2024-02-15T10:22:45;3.13;;;2.13;;
19191;SDS011;9728;48.194;16.346;2024-02-15T10:27:49;3.00;;;1.80;;
19191;SDS011;9728;48.194;16.346;2024-02-15T10:32:52;2.97;;;2.15;;
19191;SDS011;9728;48.194;16.346;2024-02-15T10:38:06;3.75;;;2.08;;
19191;SDS011;9728;48.194;16.346;2024-02-15T10:43:11;2.50;;;1.70;;
19191;SDS011;9728;48.194;16.346;2024-02-15T10:48:15;4.18;;;2.47;;
19191;SDS011;9728;48.194;16.346;2024-02-15T10:53:23;2.25;;;1.73;;
19191;SDS011;9728;48.194;16.346;2024-02-15T10:58:32;1.38;;;1.20;;
19191;SDS011;9728;48.194;16.346;2024-02-15T11:03:39;2.78;;;1.40;;
19191;SDS011;9728;48.194;16.346;2024-02-15T11:08:50;2.55;;;1.30;;
19191;SDS011;9728;48.194;16.346;2024-02-15T11:19:40;2.47;;;1.40;;
19191;SDS011;9728;48.194;16.346;2024-02-15T11:24:51;1.42;;;1.20;;
19191;SDS011;9728;48.194;16.346;2024-02-15T11:29:55;1.38;;;1.25;;
19191;SDS011;9728;48.194;16.346;2024-02-15T11:35:04;1.50;;;1.10;;
19191;SDS011;9728;48.194;16.346;2024-02-15T11:40:15;1.63;;;1.10;;
19191;SDS011;9728;48.194;16.346;2024-02-15T11:45:19;1.63;;;1.17;;
19191;SDS011;9728;48.194;16.346;2024-02-15T11:50:24;1.08;;;0.90;;
19191;SDS011;9728;48.194;16.346;2024-02-15T11:55:32;1.70;;;0.82;;
19191;SDS011;9728;48.194;16.346;2024-02-15T12:00:36;2.38;;;0.93;;
19191;SDS011;9728;48.194;16.346;2024-02-15T12:05:58;1.40;;;1.10;;
19191;SDS011;9728;48.194;16.346;2024-02-15T12:11:20;1.45;;;1.00;;
19191;SDS011;9728;48.194;16.346;2024-02-15T12:16:41;1.58;;;1.10;;
19191;SDS011;9728;48.194;16.346;2024-02-15T12:22:02;1.60;;;1.08;;
19191;SDS011;9728;48.194;16.346;2024-02-15T12:27:08;2.13;;;1.23;;
19191;SDS011;9728;48.194;16.346;2024-02-15T12:32:11;2.15;;;1.65;;
19191;SDS011;9728;48.194;16.346;2024-02-15T12:37:23;2.53;;;1.85;;
19191;SDS011;9728;48.194;16.346;2024-02-15T12:42:28;2.60;;;1.90;;
19191;SDS011;9728;48.194;16.346;2024-02-15T12:47:31;2.17;;;1.48;;
19191;SDS011;9728;48.194;16.346;2024-02-15T12:52:38;2.25;;;1.50;;
19191;SDS011;9728;48.194;16.346;2024-02-15T12:57:44;2.53;;;1.83;;
19191;SDS011;9728;48.194;16.346;2024-02-15T13:02:51;2.95;;;1.98;;
19191;SDS011;9728;48.194;16.346;2024-02-15T13:07:54;4.15;;;2.67;;
19191;SDS011;9728;48.194;16.346;2024-02-15T13:13:00;4.03;;;2.40;;
19191;SDS011;9728;48.194;16.346;2024-02-15T13:18:04;4.90;;;2.10;;
19191;SDS011;9728;48.194;16.346;2024-02-15T13:23:12;3.17;;;1.90;;
19191;SDS011;9728;48.194;16.346;2024-02-15T13:28:22;2.97;;;1.98;;
19191;SDS011;9728;48.194;16.346;2024-02-15T13:33:26;2.28;;;1.75;;
19191;SDS011;9728;48.194;16.346;2024-02-15T13:38:33;2.28;;;1.85;;
19191;SDS011;9728;48.194;16.346;2024-02-15T13:43:40;2.92;;;2.05;;
19191;SDS011;9728;48.194;16.346;2024-02-15T13:48:43;1.73;;;1.60;;
19191;SDS011;9728;48.194;16.346;2024-02-15T13:53:47;10.32;;;1.50;;
19191;SDS011;9728;48.194;16.346;2024-02-15T13:58:52;2.25;;;1.50;;
19191;SDS011;9728;48.194;16.346;2024-02-15T14:03:57;2.05;;;1.40;;
19191;SDS011;9728;48.194;16.346;2024-02-15T14:09:00;2.67;;;1.85;;
19191;SDS011;9728;48.194;16.346;2024-02-15T14:14:05;2.35;;;1.65;;
19191;SDS011;9728;48.194;16.346;2024-02-15T14:19:09;2.03;;;1.83;;
19191;SDS011;9728;48.194;16.346;2024-02-15T14:24:14;3.30;;;2.22;;
19191;SDS011;9728;48.194;16.346;2024-02-15T14:29:22;2.65;;;1.88;;
19191;SDS011;9728;48.194;16.346;2024-02-15T14:34:27;6.28;;;3.58;;
19191;SDS011;9728;48.194;16.346;2024-02-15T14:39:31;8.48;;;4.43;;
19191;SDS011;9728;48.194;16.346;2024-02-15T14:44:36;6.78;;;4.03;;
19191;SDS011;9728;48.194;16.346;2024-02-15T14:49:40;11.98;;;5.95;;
19191;SDS011;9728;48.194;16.346;2024-02-15T14:54:44;14.38;;;7.90;;
19191;SDS011;9728;48.194;16.346;2024-02-15T14:59:50;12.30;;;6.38;;
19191;SDS011;9728;48.194;16.346;2024-02-15T15:04:53;7.95;;;3.95;;
19191;SDS011;9728;48.194;16.346;2024-02-15T15:10:16;6.07;;;3.33;;
19191;SDS011;9728;48.194;16.346;2024-02-15T15:15:38;6.13;;;3.53;;
19191;SDS011;9728;48.194;16.346;2024-02-15T15:20:42;8.52;;;5.07;;
19191;SDS011;9728;48.194;16.346;2024-02-15T15:25:45;6.57;;;3.70;;
19191;SDS011;9728;48.194;16.346;2024-02-15T15:30:50;6.10;;;4.22;;
19191;SDS011;9728;48.194;16.346;2024-02-15T15:35:53;8.82;;;6.00;;
19191;SDS011;9728;48.194;16.346;2024-02-15T15:40:57;4.90;;;3.08;;
19191;SDS011;9728;48.194;16.346;2024-02-15T15:46:02;5.45;;;3.50;;
19191;SDS011;9728;48.194;16.346;2024-02-15T15:51:05;5.70;;;3.50;;
19191;SDS011;9728;48.194;16.346;2024-02-15T15:56:11;4.30;;;3.50;;
19191;SDS011;9728;48.194;16.346;2024-02-15T16:01:16;5.63;;;3.40;;
19191;SDS011;9728;48.194;16.346;2024-02-15T16:06:20;4.75;;;3.25;;
19191;SDS011;9728;48.194;16.346;2024-02-15T16:11:24;6.05;;;4.18;;
19191;SDS011;9728;48.194;16.346;2024-02-15T16:16:29;5.35;;;4.30;;
19191;SDS011;9728;48.194;16.346;2024-02-15T16:21:32;4.35;;;3.58;;
19191;SDS011;9728;48.194;16.346;2024-02-15T16:26:36;5.30;;;3.85;;
19191;SDS011;9728;48.194;16.346;2024-02-15T16:31:41;6.38;;;4.40;;
19191;SDS011;9728;48.194;16.346;2024-02-15T16:36:44;6.13;;;4.18;;
19191;SDS011;9728;48.194;16.346;2024-02-15T16:41:47;5.40;;;3.65;;
19191;SDS011;9728;48.194;16.346;2024-02-15T16:46:56;9.80;;;4.95;;
19191;SDS011;9728;48.194;16.346;2024-02-15T16:51:59;7.43;;;5.55;;
19191;SDS011;9728;48.194;16.346;2024-02-15T16:57:02;7.25;;;4.40;;
19191;SDS011;9728;48.194;16.346;2024-02-15T17:02:17;7.22;;;4.53;;
19191;SDS011;9728;48.194;16.346;2024-02-15T17:07:20;9.15;;;5.63;;
19191;SDS011;9728;48.194;16.346;2024-02-15T17:12:23;13.93;;;6.15;;
19191;SDS011;9728;48.194;16.346;2024-02-15T17:17:28;7.20;;;5.45;;
19191;SDS011;9728;48.194;16.346;2024-02-15T17:22:31;6.22;;;4.60;;
19191;SDS011;9728;48.194;16.346;2024-02-15T17:27:35;10.93;;;6.18;;
19191;SDS011;9728;48.194;16.346;2024-02-15T17:32:40;9.75;;;5.85;;
19191;SDS011;9728;48.194;16.346;2024-02-15T17:37:45;7.43;;;5.35;;
19191;SDS011;9728;48.194;16.346;2024-02-15T17:42:48;7.45;;;5.65;;
19191;SDS011;9728;48.194;16.346;2024-02-15T17:47:53;7.22;;;5.25;;
19191;SDS011;9728;48.194;16.346;2024-02-15T17:52:56;9.30;;;5.47;;
19191;SDS011;9728;48.194;16.346;2024-02-15T17:57:59;7.47;;;5.32;;
19191;SDS011;9728;48.194;16.346;2024-02-15T18:03:05;10.35;;;6.15;;
19191;SDS011;9728;48.194;16.346;2024-02-15T18:08:09;9.63;;;5.90;;
19191;SDS011;9728;48.194;16.346;2024-02-15T18:13:13;9.93;;;6.40;;
19191;SDS011;9728;48.194;16.346;2024-02-15T18:18:19;11.65;;;7.40;;
19191;SDS011;9728;48.194;16.346;2024-02-15T18:23:24;11.57;;;7.85;;
19191;SDS011;9728;48.194;16.346;2024-02-15T18:28:27;8.75;;;5.97;;
19191;SDS011;9728;48.194;16.346;2024-02-15T18:33:33;9.07;;;6.00;;
19191;SDS011;9728;48.194;16.346;2024-02-15T18:38:41;9.63;;;6.60;;
19191;SDS011;9728;48.194;16.346;2024-02-15T18:43:48;12.23;;;7.75;;
19191;SDS011;9728;48.194;16.346;2024-02-15T18:48:54;14.63;;;6.78;;
19191;SDS011;9728;48.194;16.346;2024-02-15T18:53:58;12.15;;;6.32;;
19191;SDS011;9728;48.194;16.346;2024-02-15T18:59:01;12.02;;;6.32;;
19191;SDS011;9728;48.194;16.346;2024-02-15T19:04:09;8.38;;;5.63;;
19191;SDS011;9728;48.194;16.346;2024-02-15T19:09:13;8.55;;;5.75;;
19191;SDS011;9728;48.194;16.346;2024-02-15T19:14:19;11.85;;;6.82;;
19191;SDS011;9728;48.194;16.346;2024-02-15T19:19:26;12.82;;;7.28;;
19191;SDS011;9728;48.194;16.346;2024-02-15T19:24:30;15.45;;;7.90;;
19191;SDS011;9728;48.194;16.346;2024-02-15T19:29:33;10.63;;;6.70;;
19191;SDS011;9728;48.194;16.346;2024-02-15T19:34:38;9.25;;;6.43;;
19191;SDS011;9728;48.194;16.346;2024-02-15T19:39:41;8.90;;;5.90;;
19191;SDS011;9728;48.194;16.346;2024-02-15T19:44:47;7.43;;;5.05;;
19191;SDS011;9728;48.194;16.346;2024-02-15T19:49:52;8.48;;;5.38;;
19191;SDS011;9728;48.194;16.346;2024-02-15T19:54:56;9.07;;;5.50;;
19191;SDS011;9728;48.194;16.346;2024-02-15T20:00:00;7.82;;;5.63;;
19191;SDS011;9728;48.194;16.346;2024-02-15T20:05:06;8.43;;;5.68;;
19191;SDS011;9728;48.194;16.346;2024-02-15T20:10:10;10.10;;;5.90;;
19191;SDS011;9728;48.194;16.346;2024-02-15T20:15:14;8.27;;;5.43;;
19191;SDS011;9728;48.194;16.346;2024-02-15T20:20:19;7.45;;;5.18;;
19191;SDS011;9728;48.194;16.346;2024-02-15T20:25:22;9.10;;;5.88;;
19191;SDS011;9728;48.194;16.346;2024-02-15T20:30:26;8.55;;;5.28;;
19191;SDS011;9728;48.194;16.346;2024-02-15T20:35:31;8.02;;;6.00;;
19191;SDS011;9728;48.194;16.346;2024-02-15T20:40:34;9.32;;;6.00;;
19191;SDS011;9728;48.194;16.346;2024-02-15T20:45:38;8.30;;;5.50;;
19191;SDS011;9728;48.194;16.346;2024-02-15T20:50:43;8.88;;;5.60;;
19191;SDS011;9728;48.194;16.346;2024-02-15T20:55:46;7.68;;;5.57;;
19191;SDS011;9728;48.194;16.346;2024-02-15T21:00:50;7.50;;;5.35;;
19191;SDS011;9728;48.194;16.346;2024-02-15T21:05:57;7.22;;;5.35;;
19191;SDS011;9728;48.194;16.346;2024-02-15T21:11:01;9.23;;;5.75;;
19191;SDS011;9728;48.194;16.346;2024-02-15T21:16:05;6.93;;;4.97;;
19191;SDS011;9728;48.194;16.346;2024-02-15T21:21:10;8.18;;;5.32;;
19191;SDS011;9728;48.194;16.346;2024-02-15T21:26:13;5.82;;;4.43;;
19191;SDS011;9728;48.194;16.346;2024-02-15T21:31:17;6.72;;;4.85;;
19191;SDS011;9728;48.194;16.346;2024-02-15T21:36:22;8.02;;;5.18;;
19191;SDS011;9728;48.194;16.346;2024-02-15T21:41:25;8.70;;;4.78;;
19191;SDS011;9728;48.194;16.346;2024-02-15T21:46:29;8.23;;;5.68;;
19191;SDS011;9728;48.194;16.346;2024-02-15T21:51:34;7.47;;;4.85;;
19191;SDS011;9728;48.194;16.346;2024-02-15T21:56:37;6.18;;;4.22;;
19191;SDS011;9728;48.194;16.346;2024-02-15T22:01:41;7.38;;;4.57;;
19191;SDS011;9728;48.194;16.346;2024-02-15T22:06:46;6.38;;;4.60;;
19191;SDS011;9728;48.194;16.346;2024-02-15T22:11:50;7.78;;;5.25;;
19191;SDS011;9728;48.194;16.346;2024-02-15T22:16:53;6.47;;;4.88;;
19191;SDS011;9728;48.194;16.346;2024-02-15T22:21:58;6.95;;;4.72;;
19191;SDS011;9728;48.194;16.346;2024-02-15T22:27:01;8.43;;;5.05;;
19191;SDS011;9728;48.194;16.346;2024-02-15T22:32:06;7.13;;;5.03;;
19191;SDS011;9728;48.194;16.346;2024-02-15T22:37:11;6.90;;;4.63;;
19191;SDS011;9728;48.194;16.346;2024-02-15T22:42:15;7.32;;;5.05;;
19191;SDS011;9728;48.194;16.346;2024-02-15T22:47:18;8.80;;;5.63;;
19191;SDS011;9728;48.194;16.346;2024-02-15T22:52:23;7.45;;;5.22;;
19191;SDS011;9728;48.194;16.346;2024-02-15T22:57:26;7.35;;;4.68;;
19191;SDS011;9728;48.194;16.346;2024-02-15T23:02:31;7.10;;;4.43;;
19191;SDS011;9728;48.194;16.346;2024-02-15T23:07:38;7.18;;;4.88;;
19191;SDS011;9728;48.194;16.346;2024-02-15T23:12:42;7.22;;;4.70;;
19191;SDS011;9728;48.194;16.346;2024-02-15T23:17:45;6.60;;;4.53;;
19191;SDS011;9728;48.194;16.346;2024-02-15T23:22:50;5.45;;;3.65;;
19191;SDS011;9728;48.194;16.346;2024-02-15T23:27:53;6.38;;;3.75;;
19191;SDS011;9728;48.194;16.346;2024-02-15T23:32:58;8.05;;;5.03;;
19191;SDS011;9728;48.194;16.346;2024-02-15T23:38:03;8.20;;;5.22;;
19191;SDS011;9728;48.194;16.346;2024-02-15T23:43:24;7.45;;;4.82;;
19191;SDS011;9728;48.194;16.346;2024-02-15T23:48:27;8.07;;;4.18;;
19191;SDS011;9728;48.194;16.346;2024-02-15T23:53:32;7.00;;;4.40;;
19191;SDS011;9728;48.194;16.346;2024-02-15T23:58:36;6.63;;;4.45;;
